sensor_id;sensor_type;location;lat;lon;timestamp;P1;durP1;ratioP1;P2;durP2;ratioP2
51214;SDS011;63849;47.546;19.254;2023-06-26T00:01:27;7.05;;;6.20;;
51214;SDS011;63849;47.546;19.254;2023-06-26T00:03:59;6.20;;;5.60;;
51214;SDS011;63849;47.546;19.254;2023-06-26T00:06:26;6.85;;;5.82;;
51214;SDS011;63849;47.546;19.254;2023-06-26T00:08:55;6.75;;;5.97;;
51214;SDS011;63849;47.546;19.254;2023-06-26T00:11:21;7.18;;;5.47;;
51214;SDS011;63849;47.546;19.254;2023-06-26T00:13:47;5.68;;;5.18;;
51214;SDS011;63849;47.546;19.254;2023-06-26T00:16:13;7.70;;;5.57;;
51214;SDS011;63849;47.546;19.254;2023-06-26T00:18:39;6.18;;;5.57;;
51214;SDS011;63849;47.546;19.254;2023-06-26T00:21:05;6.60;;;5.90;;
51214;SDS011;63849;47.546;19.254;2023-06-26T00:23:31;6.65;;;5.93;;
51214;SDS011;63849;47.546;19.254;2023-06-26T00:25:58;6.35;;;5.75;;
51214;SDS011;63849;47.546;19.254;2023-06-26T00:28:23;6.45;;;5.68;;
51214;SDS011;63849;47.546;19.254;2023-06-26T00:30:49;6.47;;;5.82;;
51214;SDS011;63849;47.546;19.254;2023-06-26T00:33:15;6.35;;;5.72;;
51214;SDS011;63849;47.546;19.254;2023-06-26T00:35:41;6.20;;;5.60;;
51214;SDS011;63849;47.546;19.254;2023-06-26T00:38:07;8.02;;;6.13;;
51214;SDS011;63849;47.546;19.254;2023-06-26T00:40:33;6.65;;;5.85;;
51214;SDS011;63849;47.546;19.254;2023-06-26T00:42:58;6.38;;;5.78;;
51214;SDS011;63849;47.546;19.254;2023-06-26T00:45:24;7.03;;;5.95;;
51214;SDS011;63849;47.546;19.254;2023-06-26T00:47:50;6.20;;;5.65;;
51214;SDS011;63849;47.546;19.254;2023-06-26T00:50:15;6.90;;;5.90;;
51214;SDS011;63849;47.546;19.254;2023-06-26T00:52:42;7.00;;;6.20;;
51214;SDS011;63849;47.546;19.254;2023-06-26T00:55:08;7.65;;;6.85;;
51214;SDS011;63849;47.546;19.254;2023-06-26T00:57:34;7.43;;;6.72;;
51214;SDS011;63849;47.546;19.254;2023-06-26T01:00:00;8.05;;;6.88;;
51214;SDS011;63849;47.546;19.254;2023-06-26T01:02:29;8.88;;;7.60;;
51214;SDS011;63849;47.546;19.254;2023-06-26T01:04:58;9.23;;;7.65;;
51214;SDS011;63849;47.546;19.254;2023-06-26T01:07:26;8.50;;;7.22;;
51214;SDS011;63849;47.546;19.254;2023-06-26T01:09:52;9.80;;;7.95;;
51214;SDS011;63849;47.546;19.254;2023-06-26T01:12:18;7.75;;;7.05;;
51214;SDS011;63849;47.546;19.254;2023-06-26T01:14:43;7.82;;;7.10;;
51214;SDS011;63849;47.546;19.254;2023-06-26T01:17:10;8.07;;;7.15;;
51214;SDS011;63849;47.546;19.254;2023-06-26T01:19:40;7.35;;;6.65;;
51214;SDS011;63849;47.546;19.254;2023-06-26T01:22:14;8.10;;;7.30;;
51214;SDS011;63849;47.546;19.254;2023-06-26T01:25:01;7.68;;;6.95;;
51214;SDS011;63849;47.546;19.254;2023-06-26T01:27:38;9.20;;;7.30;;
51214;SDS011;63849;47.546;19.254;2023-06-26T01:30:04;8.15;;;7.35;;
51214;SDS011;63849;47.546;19.254;2023-06-26T01:32:32;8.00;;;7.20;;
51214;SDS011;63849;47.546;19.254;2023-06-26T01:34:59;9.13;;;7.75;;
51214;SDS011;63849;47.546;19.254;2023-06-26T01:37:25;7.85;;;7.13;;
51214;SDS011;63849;47.546;19.254;2023-06-26T01:39:51;10.95;;;8.23;;
51214;SDS011;63849;47.546;19.254;2023-06-26T01:42:16;8.55;;;7.65;;
51214;SDS011;63849;47.546;19.254;2023-06-26T01:44:44;11.43;;;7.93;;
51214;SDS011;63849;47.546;19.254;2023-06-26T01:47:12;8.05;;;7.25;;
51214;SDS011;63849;47.546;19.254;2023-06-26T01:49:49;9.27;;;7.20;;
51214;SDS011;63849;47.546;19.254;2023-06-26T01:57:46;9.10;;;8.20;;
51214;SDS011;63849;47.546;19.254;2023-06-26T02:00:16;8.20;;;7.35;;
51214;SDS011;63849;47.546;19.254;2023-06-26T02:02:44;8.00;;;7.28;;
51214;SDS011;63849;47.546;19.254;2023-06-26T02:05:09;9.05;;;7.75;;
51214;SDS011;63849;47.546;19.254;2023-06-26T02:07:36;8.35;;;7.45;;
51214;SDS011;63849;47.546;19.254;2023-06-26T02:10:02;9.10;;;7.85;;
51214;SDS011;63849;47.546;19.254;2023-06-26T02:12:28;8.65;;;7.75;;
51214;SDS011;63849;47.546;19.254;2023-06-26T02:14:54;8.88;;;7.43;;
51214;SDS011;63849;47.546;19.254;2023-06-26T02:17:20;8.07;;;6.97;;
51214;SDS011;63849;47.546;19.254;2023-06-26T02:19:45;15.65;;;7.45;;
51214;SDS011;63849;47.546;19.254;2023-06-26T02:22:15;8.60;;;7.22;;
51214;SDS011;63849;47.546;19.254;2023-06-26T02:24:42;8.60;;;6.80;;
51214;SDS011;63849;47.546;19.254;2023-06-26T02:27:08;8.43;;;7.63;;
51214;SDS011;63849;47.546;19.254;2023-06-26T02:29:34;8.10;;;7.30;;
51214;SDS011;63849;47.546;19.254;2023-06-26T02:32:00;8.02;;;7.18;;
51214;SDS011;63849;47.546;19.254;2023-06-26T02:34:27;7.80;;;7.07;;
51214;SDS011;63849;47.546;19.254;2023-06-26T02:36:52;8.00;;;6.93;;
51214;SDS011;63849;47.546;19.254;2023-06-26T02:39:23;8.15;;;7.35;;
51214;SDS011;63849;47.546;19.254;2023-06-26T02:41:49;8.57;;;6.82;;
51214;SDS011;63849;47.546;19.254;2023-06-26T02:44:15;8.52;;;7.22;;
51214;SDS011;63849;47.546;19.254;2023-06-26T02:46:41;9.02;;;7.03;;
51214;SDS011;63849;47.546;19.254;2023-06-26T02:49:06;10.13;;;7.55;;
51214;SDS011;63849;47.546;19.254;2023-06-26T02:51:32;7.43;;;6.65;;
51214;SDS011;63849;47.546;19.254;2023-06-26T02:53:59;7.95;;;7.22;;
51214;SDS011;63849;47.546;19.254;2023-06-26T02:56:25;8.10;;;7.40;;
51214;SDS011;63849;47.546;19.254;2023-06-26T02:58:57;8.55;;;7.25;;
51214;SDS011;63849;47.546;19.254;2023-06-26T03:01:24;8.45;;;7.25;;
51214;SDS011;63849;47.546;19.254;2023-06-26T03:03:50;7.95;;;7.18;;
51214;SDS011;63849;47.546;19.254;2023-06-26T03:06:16;8.88;;;7.25;;
51214;SDS011;63849;47.546;19.254;2023-06-26T03:08:42;9.52;;;7.20;;
51214;SDS011;63849;47.546;19.254;2023-06-26T03:11:08;7.80;;;7.00;;
51214;SDS011;63849;47.546;19.254;2023-06-26T03:13:34;7.95;;;7.07;;
51214;SDS011;63849;47.546;19.254;2023-06-26T03:16:01;7.55;;;6.85;;
51214;SDS011;63849;47.546;19.254;2023-06-26T03:18:27;8.00;;;7.20;;
51214;SDS011;63849;47.546;19.254;2023-06-26T03:20:53;7.82;;;7.03;;
51214;SDS011;63849;47.546;19.254;2023-06-26T03:23:20;8.65;;;7.38;;
51214;SDS011;63849;47.546;19.254;2023-06-26T03:25:46;10.50;;;7.70;;
51214;SDS011;63849;47.546;19.254;2023-06-26T03:28:13;7.88;;;7.05;;
51214;SDS011;63849;47.546;19.254;2023-06-26T03:30:39;9.77;;;7.43;;
51214;SDS011;63849;47.546;19.254;2023-06-26T03:33:04;8.90;;;6.80;;
51214;SDS011;63849;47.546;19.254;2023-06-26T03:35:30;8.02;;;7.15;;
51214;SDS011;63849;47.546;19.254;2023-06-26T03:37:57;8.38;;;7.30;;
51214;SDS011;63849;47.546;19.254;2023-06-26T03:40:23;9.07;;;7.10;;
51214;SDS011;63849;47.546;19.254;2023-06-26T03:42:49;9.65;;;7.65;;
51214;SDS011;63849;47.546;19.254;2023-06-26T03:45:15;8.73;;;7.18;;
51214;SDS011;63849;47.546;19.254;2023-06-26T03:47:40;7.72;;;6.97;;
51214;SDS011;63849;47.546;19.254;2023-06-26T03:50:06;7.53;;;6.80;;
51214;SDS011;63849;47.546;19.254;2023-06-26T03:52:32;10.05;;;8.68;;
51214;SDS011;63849;47.546;19.254;2023-06-26T03:54:58;9.70;;;7.07;;
51214;SDS011;63849;47.546;19.254;2023-06-26T03:57:24;8.38;;;7.53;;
51214;SDS011;63849;47.546;19.254;2023-06-26T03:59:50;7.53;;;6.82;;
51214;SDS011;63849;47.546;19.254;2023-06-26T04:02:16;8.15;;;7.13;;
51214;SDS011;63849;47.546;19.254;2023-06-26T04:04:44;8.15;;;7.35;;
51214;SDS011;63849;47.546;19.254;2023-06-26T04:07:09;9.27;;;7.88;;
51214;SDS011;63849;47.546;19.254;2023-06-26T04:09:35;11.63;;;7.78;;
51214;SDS011;63849;47.546;19.254;2023-06-26T04:12:01;8.02;;;7.22;;
51214;SDS011;63849;47.546;19.254;2023-06-26T04:14:27;8.35;;;6.57;;
51214;SDS011;63849;47.546;19.254;2023-06-26T04:16:53;10.80;;;7.53;;
51214;SDS011;63849;47.546;19.254;2023-06-26T04:19:19;7.22;;;6.45;;
51214;SDS011;63849;47.546;19.254;2023-06-26T04:21:44;9.38;;;7.00;;
51214;SDS011;63849;47.546;19.254;2023-06-26T04:24:10;8.52;;;6.63;;
51214;SDS011;63849;47.546;19.254;2023-06-26T04:26:36;7.75;;;6.78;;
51214;SDS011;63849;47.546;19.254;2023-06-26T04:29:03;11.10;;;6.88;;
51214;SDS011;63849;47.546;19.254;2023-06-26T04:31:29;6.75;;;5.97;;
51214;SDS011;63849;47.546;19.254;2023-06-26T04:33:54;7.57;;;6.80;;
51214;SDS011;63849;47.546;19.254;2023-06-26T04:36:21;10.80;;;7.03;;
51214;SDS011;63849;47.546;19.254;2023-06-26T04:38:47;11.40;;;7.43;;
51214;SDS011;63849;47.546;19.254;2023-06-26T04:41:16;10.70;;;7.22;;
51214;SDS011;63849;47.546;19.254;2023-06-26T04:43:42;6.95;;;6.25;;
51214;SDS011;63849;47.546;19.254;2023-06-26T04:46:07;10.02;;;6.50;;
51214;SDS011;63849;47.546;19.254;2023-06-26T04:48:33;8.27;;;6.28;;
51214;SDS011;63849;47.546;19.254;2023-06-26T04:50:59;8.55;;;6.95;;
51214;SDS011;63849;47.546;19.254;2023-06-26T04:53:24;10.63;;;6.88;;
51214;SDS011;63849;47.546;19.254;2023-06-26T04:55:51;11.40;;;7.05;;
51214;SDS011;63849;47.546;19.254;2023-06-26T04:58:17;10.82;;;6.97;;
51214;SDS011;63849;47.546;19.254;2023-06-26T05:00:43;9.40;;;6.55;;
51214;SDS011;63849;47.546;19.254;2023-06-26T05:03:14;10.25;;;7.07;;
51214;SDS011;63849;47.546;19.254;2023-06-26T05:05:42;6.30;;;5.80;;
51214;SDS011;63849;47.546;19.254;2023-06-26T05:08:21;7.20;;;6.53;;
51214;SDS011;63849;47.546;19.254;2023-06-26T05:10:48;10.52;;;6.72;;
51214;SDS011;63849;47.546;19.254;2023-06-26T05:13:14;7.70;;;6.63;;
51214;SDS011;63849;47.546;19.254;2023-06-26T05:15:43;6.53;;;5.93;;
51214;SDS011;63849;47.546;19.254;2023-06-26T05:18:09;7.90;;;6.88;;
51214;SDS011;63849;47.546;19.254;2023-06-26T05:20:36;6.75;;;6.15;;
51214;SDS011;63849;47.546;19.254;2023-06-26T05:23:02;6.65;;;6.05;;
51214;SDS011;63849;47.546;19.254;2023-06-26T05:25:29;6.75;;;6.15;;
51214;SDS011;63849;47.546;19.254;2023-06-26T05:27:58;6.80;;;6.15;;
51214;SDS011;63849;47.546;19.254;2023-06-26T05:30:26;6.82;;;6.22;;
51214;SDS011;63849;47.546;19.254;2023-06-26T05:32:53;6.45;;;5.85;;
51214;SDS011;63849;47.546;19.254;2023-06-26T05:35:22;7.53;;;6.13;;
51214;SDS011;63849;47.546;19.254;2023-06-26T05:37:49;6.43;;;5.82;;
51214;SDS011;63849;47.546;19.254;2023-06-26T05:40:18;5.85;;;5.35;;
51214;SDS011;63849;47.546;19.254;2023-06-26T05:42:44;6.30;;;5.80;;
51214;SDS011;63849;47.546;19.254;2023-06-26T05:45:10;6.32;;;5.72;;
51214;SDS011;63849;47.546;19.254;2023-06-26T05:47:36;6.80;;;6.13;;
51214;SDS011;63849;47.546;19.254;2023-06-26T05:50:02;6.40;;;5.80;;
51214;SDS011;63849;47.546;19.254;2023-06-26T05:52:29;7.45;;;6.32;;
51214;SDS011;63849;47.546;19.254;2023-06-26T05:54:55;8.35;;;6.20;;
51214;SDS011;63849;47.546;19.254;2023-06-26T05:57:26;7.28;;;6.13;;
51214;SDS011;63849;47.546;19.254;2023-06-26T05:59:53;6.30;;;5.80;;
51214;SDS011;63849;47.546;19.254;2023-06-26T06:02:20;6.88;;;6.15;;
51214;SDS011;63849;47.546;19.254;2023-06-26T06:04:46;6.28;;;5.10;;
51214;SDS011;63849;47.546;19.254;2023-06-26T06:07:12;6.18;;;5.57;;
51214;SDS011;63849;47.546;19.254;2023-06-26T06:09:38;6.53;;;5.88;;
51214;SDS011;63849;47.546;19.254;2023-06-26T06:12:04;6.05;;;5.43;;
51214;SDS011;63849;47.546;19.254;2023-06-26T06:14:31;7.05;;;6.35;;
51214;SDS011;63849;47.546;19.254;2023-06-26T06:16:58;6.78;;;6.18;;
51214;SDS011;63849;47.546;19.254;2023-06-26T06:19:24;5.80;;;5.20;;
51214;SDS011;63849;47.546;19.254;2023-06-26T06:21:50;6.07;;;5.63;;
51214;SDS011;63849;47.546;19.254;2023-06-26T06:24:16;6.47;;;5.72;;
51214;SDS011;63849;47.546;19.254;2023-06-26T06:26:41;6.05;;;5.55;;
51214;SDS011;63849;47.546;19.254;2023-06-26T06:29:07;6.70;;;6.13;;
51214;SDS011;63849;47.546;19.254;2023-06-26T06:31:33;6.05;;;5.55;;
51214;SDS011;63849;47.546;19.254;2023-06-26T06:33:59;9.35;;;5.57;;
51214;SDS011;63849;47.546;19.254;2023-06-26T06:36:25;5.97;;;5.35;;
51214;SDS011;63849;47.546;19.254;2023-06-26T06:38:50;6.32;;;5.82;;
51214;SDS011;63849;47.546;19.254;2023-06-26T06:41:16;5.97;;;5.43;;
51214;SDS011;63849;47.546;19.254;2023-06-26T06:43:42;6.47;;;5.80;;
51214;SDS011;63849;47.546;19.254;2023-06-26T06:46:08;6.28;;;5.78;;
51214;SDS011;63849;47.546;19.254;2023-06-26T06:48:34;6.68;;;5.70;;
51214;SDS011;63849;47.546;19.254;2023-06-26T06:51:00;6.43;;;5.72;;
51214;SDS011;63849;47.546;19.254;2023-06-26T06:53:26;6.30;;;5.70;;
51214;SDS011;63849;47.546;19.254;2023-06-26T06:55:51;6.43;;;5.82;;
51214;SDS011;63849;47.546;19.254;2023-06-26T06:58:17;11.38;;;6.32;;
51214;SDS011;63849;47.546;19.254;2023-06-26T07:00:47;7.93;;;6.07;;
51214;SDS011;63849;47.546;19.254;2023-06-26T07:03:13;9.05;;;6.07;;
51214;SDS011;63849;47.546;19.254;2023-06-26T07:05:41;6.35;;;5.78;;
51214;SDS011;63849;47.546;19.254;2023-06-26T07:08:08;7.07;;;5.57;;
51214;SDS011;63849;47.546;19.254;2023-06-26T07:10:34;6.00;;;5.50;;
51214;SDS011;63849;47.546;19.254;2023-06-26T07:13:00;9.05;;;5.10;;
51214;SDS011;63849;47.546;19.254;2023-06-26T07:15:26;6.40;;;5.90;;
51214;SDS011;63849;47.546;19.254;2023-06-26T07:17:51;5.88;;;5.30;;
51214;SDS011;63849;47.546;19.254;2023-06-26T07:20:17;5.82;;;5.32;;
51214;SDS011;63849;47.546;19.254;2023-06-26T07:22:43;5.93;;;5.43;;
51214;SDS011;63849;47.546;19.254;2023-06-26T07:25:15;6.32;;;5.63;;
51214;SDS011;63849;47.546;19.254;2023-06-26T07:27:41;5.38;;;4.97;;
51214;SDS011;63849;47.546;19.254;2023-06-26T07:30:07;5.60;;;5.15;;
51214;SDS011;63849;47.546;19.254;2023-06-26T07:32:34;6.25;;;5.65;;
51214;SDS011;63849;47.546;19.254;2023-06-26T07:35:00;5.60;;;5.20;;
51214;SDS011;63849;47.546;19.254;2023-06-26T07:37:26;6.10;;;5.47;;
51214;SDS011;63849;47.546;19.254;2023-06-26T07:39:52;6.65;;;5.85;;
51214;SDS011;63849;47.546;19.254;2023-06-26T07:42:18;6.40;;;5.80;;
51214;SDS011;63849;47.546;19.254;2023-06-26T07:44:44;6.05;;;5.53;;
51214;SDS011;63849;47.546;19.254;2023-06-26T07:47:10;6.20;;;5.60;;
51214;SDS011;63849;47.546;19.254;2023-06-26T07:49:36;6.20;;;5.22;;
51214;SDS011;63849;47.546;19.254;2023-06-26T07:52:04;6.28;;;5.80;;
51214;SDS011;63849;47.546;19.254;2023-06-26T07:54:30;6.18;;;5.70;;
51214;SDS011;63849;47.546;19.254;2023-06-26T07:56:57;6.25;;;5.65;;
51214;SDS011;63849;47.546;19.254;2023-06-26T07:59:25;6.72;;;6.13;;
51214;SDS011;63849;47.546;19.254;2023-06-26T08:01:52;7.50;;;6.75;;
51214;SDS011;63849;47.546;19.254;2023-06-26T08:04:19;6.90;;;6.25;;
51214;SDS011;63849;47.546;19.254;2023-06-26T08:06:47;6.70;;;6.15;;
51214;SDS011;63849;47.546;19.254;2023-06-26T08:09:14;6.15;;;5.53;;
51214;SDS011;63849;47.546;19.254;2023-06-26T08:11:40;7.90;;;6.25;;
51214;SDS011;63849;47.546;19.254;2023-06-26T08:14:06;8.20;;;6.65;;
51214;SDS011;63849;47.546;19.254;2023-06-26T08:16:31;7.10;;;6.30;;
51214;SDS011;63849;47.546;19.254;2023-06-26T08:18:57;6.30;;;5.75;;
51214;SDS011;63849;47.546;19.254;2023-06-26T08:21:23;6.85;;;6.25;;
51214;SDS011;63849;47.546;19.254;2023-06-26T08:23:49;6.80;;;6.20;;
51214;SDS011;63849;47.546;19.254;2023-06-26T08:26:16;8.02;;;6.20;;
51214;SDS011;63849;47.546;19.254;2023-06-26T08:28:41;6.93;;;6.32;;
51214;SDS011;63849;47.546;19.254;2023-06-26T08:31:07;7.50;;;6.80;;
51214;SDS011;63849;47.546;19.254;2023-06-26T08:33:33;6.75;;;6.15;;
51214;SDS011;63849;47.546;19.254;2023-06-26T08:35:59;6.70;;;6.10;;
51214;SDS011;63849;47.546;19.254;2023-06-26T08:38:24;7.47;;;6.55;;
51214;SDS011;63849;47.546;19.254;2023-06-26T08:40:50;6.72;;;5.97;;
51214;SDS011;63849;47.546;19.254;2023-06-26T08:43:16;7.70;;;7.00;;
51214;SDS011;63849;47.546;19.254;2023-06-26T08:45:42;7.70;;;6.97;;
51214;SDS011;63849;47.546;19.254;2023-06-26T08:48:08;7.25;;;6.55;;
51214;SDS011;63849;47.546;19.254;2023-06-26T08:50:35;7.57;;;6.82;;
51214;SDS011;63849;47.546;19.254;2023-06-26T08:53:23;6.97;;;6.38;;
51214;SDS011;63849;47.546;19.254;2023-06-26T08:56:05;7.65;;;6.88;;
51214;SDS011;63849;47.546;19.254;2023-06-26T08:58:33;7.20;;;6.60;;
51214;SDS011;63849;47.546;19.254;2023-06-26T09:01:02;7.00;;;6.40;;
51214;SDS011;63849;47.546;19.254;2023-06-26T09:03:30;7.05;;;6.32;;
51214;SDS011;63849;47.546;19.254;2023-06-26T09:05:57;7.07;;;6.43;;
51214;SDS011;63849;47.546;19.254;2023-06-26T09:08:22;7.75;;;7.05;;
51214;SDS011;63849;47.546;19.254;2023-06-26T09:10:48;9.13;;;6.32;;
51214;SDS011;63849;47.546;19.254;2023-06-26T09:13:14;7.15;;;6.50;;
51214;SDS011;63849;47.546;19.254;2023-06-26T09:15:44;7.15;;;6.45;;
51214;SDS011;63849;47.546;19.254;2023-06-26T09:18:11;6.80;;;6.20;;
51214;SDS011;63849;47.546;19.254;2023-06-26T09:20:38;8.27;;;6.53;;
51214;SDS011;63849;47.546;19.254;2023-06-26T09:23:04;7.30;;;6.68;;
51214;SDS011;63849;47.546;19.254;2023-06-26T09:25:30;7.68;;;6.93;;
51214;SDS011;63849;47.546;19.254;2023-06-26T09:27:57;7.15;;;6.45;;
51214;SDS011;63849;47.546;19.254;2023-06-26T09:30:23;7.32;;;6.63;;
51214;SDS011;63849;47.546;19.254;2023-06-26T09:32:49;7.15;;;6.55;;
51214;SDS011;63849;47.546;19.254;2023-06-26T09:35:19;7.07;;;6.47;;
51214;SDS011;63849;47.546;19.254;2023-06-26T09:37:45;7.45;;;6.55;;
51214;SDS011;63849;47.546;19.254;2023-06-26T09:40:11;8.18;;;6.60;;
51214;SDS011;63849;47.546;19.254;2023-06-26T09:42:38;7.63;;;6.93;;
51214;SDS011;63849;47.546;19.254;2023-06-26T09:45:04;6.65;;;6.10;;
51214;SDS011;63849;47.546;19.254;2023-06-26T09:47:30;7.25;;;6.55;;
51214;SDS011;63849;47.546;19.254;2023-06-26T09:49:59;7.00;;;6.43;;
51214;SDS011;63849;47.546;19.254;2023-06-26T09:52:26;7.82;;;6.90;;
51214;SDS011;63849;47.546;19.254;2023-06-26T09:55:12;7.55;;;6.60;;
51214;SDS011;63849;47.546;19.254;2023-06-26T09:57:38;7.38;;;6.72;;
51214;SDS011;63849;47.546;19.254;2023-06-26T10:00:05;8.05;;;6.93;;
51214;SDS011;63849;47.546;19.254;2023-06-26T10:02:33;7.47;;;6.68;;
51214;SDS011;63849;47.546;19.254;2023-06-26T10:04:59;7.35;;;6.75;;
51214;SDS011;63849;47.546;19.254;2023-06-26T10:07:25;7.78;;;6.95;;
51214;SDS011;63849;47.546;19.254;2023-06-26T10:09:51;8.23;;;6.75;;
51214;SDS011;63849;47.546;19.254;2023-06-26T10:12:26;7.40;;;6.68;;
51214;SDS011;63849;47.546;19.254;2023-06-26T10:14:55;7.30;;;6.60;;
51214;SDS011;63849;47.546;19.254;2023-06-26T10:17:22;7.88;;;6.50;;
51214;SDS011;63849;47.546;19.254;2023-06-26T10:19:51;7.53;;;6.45;;
51214;SDS011;63849;47.546;19.254;2023-06-26T10:22:20;7.70;;;6.97;;
51214;SDS011;63849;47.546;19.254;2023-06-26T10:24:49;7.38;;;6.60;;
51214;SDS011;63849;47.546;19.254;2023-06-26T10:27:18;7.10;;;6.50;;
51214;SDS011;63849;47.546;19.254;2023-06-26T10:29:47;7.30;;;6.70;;
51214;SDS011;63849;47.546;19.254;2023-06-26T10:32:17;7.22;;;6.53;;
51214;SDS011;63849;47.546;19.254;2023-06-26T10:34:45;7.40;;;6.70;;
51214;SDS011;63849;47.546;19.254;2023-06-26T10:37:11;7.10;;;6.20;;
51214;SDS011;63849;47.546;19.254;2023-06-26T10:39:48;7.72;;;7.00;;
51214;SDS011;63849;47.546;19.254;2023-06-26T10:42:15;7.97;;;6.88;;
51214;SDS011;63849;47.546;19.254;2023-06-26T10:44:42;6.70;;;6.10;;
51214;SDS011;63849;47.546;19.254;2023-06-26T10:47:09;7.32;;;6.72;;
51214;SDS011;63849;47.546;19.254;2023-06-26T10:49:36;7.22;;;6.63;;
51214;SDS011;63849;47.546;19.254;2023-06-26T10:52:07;6.45;;;5.95;;
51214;SDS011;63849;47.546;19.254;2023-06-26T10:54:33;7.93;;;7.18;;
51214;SDS011;63849;47.546;19.254;2023-06-26T10:57:01;7.85;;;7.15;;
51214;SDS011;63849;47.546;19.254;2023-06-26T10:59:28;7.00;;;6.40;;
51214;SDS011;63849;47.546;19.254;2023-06-26T11:01:56;7.95;;;7.15;;
51214;SDS011;63849;47.546;19.254;2023-06-26T11:07:25;7.68;;;6.75;;
51214;SDS011;63849;47.546;19.254;2023-06-26T11:12:36;7.80;;;7.00;;
51214;SDS011;63849;47.546;19.254;2023-06-26T11:17:39;7.47;;;6.72;;
51214;SDS011;63849;47.546;19.254;2023-06-26T11:20:06;7.20;;;6.50;;
51214;SDS011;63849;47.546;19.254;2023-06-26T11:22:34;8.18;;;7.15;;
51214;SDS011;63849;47.546;19.254;2023-06-26T11:25:04;7.75;;;7.07;;
51214;SDS011;63849;47.546;19.254;2023-06-26T11:27:40;7.10;;;6.40;;
51214;SDS011;63849;47.546;19.254;2023-06-26T11:30:08;7.35;;;6.65;;
51214;SDS011;63849;47.546;19.254;2023-06-26T11:32:38;7.35;;;6.65;;
51214;SDS011;63849;47.546;19.254;2023-06-26T11:35:04;7.60;;;6.80;;
51214;SDS011;63849;47.546;19.254;2023-06-26T11:37:31;8.00;;;7.25;;
51214;SDS011;63849;47.546;19.254;2023-06-26T11:39:57;7.32;;;6.63;;
51214;SDS011;63849;47.546;19.254;2023-06-26T11:42:23;7.18;;;6.50;;
51214;SDS011;63849;47.546;19.254;2023-06-26T11:44:52;7.25;;;6.50;;
51214;SDS011;63849;47.546;19.254;2023-06-26T11:47:19;7.15;;;6.45;;
51214;SDS011;63849;47.546;19.254;2023-06-26T11:49:46;7.53;;;6.82;;
51214;SDS011;63849;47.546;19.254;2023-06-26T11:52:14;7.97;;;7.18;;
51214;SDS011;63849;47.546;19.254;2023-06-26T11:54:41;7.72;;;7.03;;
51214;SDS011;63849;47.546;19.254;2023-06-26T11:57:07;6.88;;;6.38;;
51214;SDS011;63849;47.546;19.254;2023-06-26T11:59:39;7.25;;;6.60;;
51214;SDS011;63849;47.546;19.254;2023-06-26T12:02:09;8.02;;;6.57;;
51214;SDS011;63849;47.546;19.254;2023-06-26T12:04:40;7.80;;;7.05;;
51214;SDS011;63849;47.546;19.254;2023-06-26T12:07:07;6.93;;;6.22;;
51214;SDS011;63849;47.546;19.254;2023-06-26T12:09:41;6.97;;;6.28;;
51214;SDS011;63849;47.546;19.254;2023-06-26T12:12:09;6.45;;;5.85;;
51214;SDS011;63849;47.546;19.254;2023-06-26T12:14:36;6.65;;;5.97;;
51214;SDS011;63849;47.546;19.254;2023-06-26T12:17:08;11.35;;;6.90;;
51214;SDS011;63849;47.546;19.254;2023-06-26T12:19:39;7.03;;;5.90;;
51214;SDS011;63849;47.546;19.254;2023-06-26T12:22:09;6.78;;;6.18;;
51214;SDS011;63849;47.546;19.254;2023-06-26T12:24:36;7.47;;;6.78;;
51214;SDS011;63849;47.546;19.254;2023-06-26T12:27:11;9.40;;;6.63;;
51214;SDS011;63849;47.546;19.254;2023-06-26T12:29:39;8.10;;;6.38;;
51214;SDS011;63849;47.546;19.254;2023-06-26T12:32:10;7.47;;;6.82;;
51214;SDS011;63849;47.546;19.254;2023-06-26T12:34:37;6.85;;;6.22;;
51214;SDS011;63849;47.546;19.254;2023-06-26T12:37:05;6.68;;;6.18;;
51214;SDS011;63849;47.546;19.254;2023-06-26T12:39:45;7.43;;;6.47;;
51214;SDS011;63849;47.546;19.254;2023-06-26T12:42:17;7.55;;;6.53;;
51214;SDS011;63849;47.546;19.254;2023-06-26T12:44:44;7.70;;;6.85;;
51214;SDS011;63849;47.546;19.254;2023-06-26T12:47:10;8.02;;;7.28;;
51214;SDS011;63849;47.546;19.254;2023-06-26T12:49:40;8.45;;;6.70;;
51214;SDS011;63849;47.546;19.254;2023-06-26T12:52:10;6.63;;;6.05;;
51214;SDS011;63849;47.546;19.254;2023-06-26T12:54:41;8.07;;;6.85;;
51214;SDS011;63849;47.546;19.254;2023-06-26T12:57:08;6.65;;;6.05;;
51214;SDS011;63849;47.546;19.254;2023-06-26T12:59:38;7.25;;;6.63;;
51214;SDS011;63849;47.546;19.254;2023-06-26T13:02:05;7.20;;;6.55;;
51214;SDS011;63849;47.546;19.254;2023-06-26T13:04:31;9.88;;;6.78;;
51214;SDS011;63849;47.546;19.254;2023-06-26T13:06:58;7.15;;;6.45;;
51214;SDS011;63849;47.546;19.254;2023-06-26T13:09:24;7.07;;;6.47;;
51214;SDS011;63849;47.546;19.254;2023-06-26T13:11:51;6.88;;;6.28;;
51214;SDS011;63849;47.546;19.254;2023-06-26T13:14:17;7.45;;;6.75;;
51214;SDS011;63849;47.546;19.254;2023-06-26T13:16:43;6.70;;;6.10;;
51214;SDS011;63849;47.546;19.254;2023-06-26T13:19:09;7.38;;;6.68;;
51214;SDS011;63849;47.546;19.254;2023-06-26T13:21:35;7.20;;;6.50;;
51214;SDS011;63849;47.546;19.254;2023-06-26T13:24:01;6.97;;;6.28;;
51214;SDS011;63849;47.546;19.254;2023-06-26T13:26:29;6.65;;;6.13;;
51214;SDS011;63849;47.546;19.254;2023-06-26T13:28:55;6.70;;;6.10;;
51214;SDS011;63849;47.546;19.254;2023-06-26T13:31:21;9.23;;;6.18;;
51214;SDS011;63849;47.546;19.254;2023-06-26T13:33:47;7.32;;;6.45;;
51214;SDS011;63849;47.546;19.254;2023-06-26T13:36:17;6.95;;;6.35;;
51214;SDS011;63849;47.546;19.254;2023-06-26T13:38:43;7.47;;;6.78;;
51214;SDS011;63849;47.546;19.254;2023-06-26T13:41:09;8.02;;;7.22;;
51214;SDS011;63849;47.546;19.254;2023-06-26T13:43:35;7.53;;;6.57;;
51214;SDS011;63849;47.546;19.254;2023-06-26T13:46:01;7.75;;;6.80;;
51214;SDS011;63849;47.546;19.254;2023-06-26T13:48:28;7.15;;;6.55;;
51214;SDS011;63849;47.546;19.254;2023-06-26T13:50:54;6.95;;;6.32;;
51214;SDS011;63849;47.546;19.254;2023-06-26T13:53:21;7.25;;;6.40;;
51214;SDS011;63849;47.546;19.254;2023-06-26T13:55:47;7.32;;;6.38;;
51214;SDS011;63849;47.546;19.254;2023-06-26T13:58:13;7.75;;;7.03;;
51214;SDS011;63849;47.546;19.254;2023-06-26T14:00:40;6.75;;;6.15;;
51214;SDS011;63849;47.546;19.254;2023-06-26T14:03:06;7.63;;;6.38;;
51214;SDS011;63849;47.546;19.254;2023-06-26T14:05:33;6.90;;;6.20;;
51214;SDS011;63849;47.546;19.254;2023-06-26T14:08:02;7.05;;;6.35;;
51214;SDS011;63849;47.546;19.254;2023-06-26T14:10:29;6.32;;;5.78;;
51214;SDS011;63849;47.546;19.254;2023-06-26T14:12:55;7.07;;;6.47;;
51214;SDS011;63849;47.546;19.254;2023-06-26T14:15:21;8.80;;;6.63;;
51214;SDS011;63849;47.546;19.254;2023-06-26T14:17:47;7.30;;;6.60;;
51214;SDS011;63849;47.546;19.254;2023-06-26T14:20:15;7.65;;;6.93;;
51214;SDS011;63849;47.546;19.254;2023-06-26T14:22:43;6.65;;;6.00;;
51214;SDS011;63849;47.546;19.254;2023-06-26T14:25:09;7.68;;;6.32;;
51214;SDS011;63849;47.546;19.254;2023-06-26T14:27:36;7.38;;;6.60;;
51214;SDS011;63849;47.546;19.254;2023-06-26T14:30:02;7.43;;;6.72;;
51214;SDS011;63849;47.546;19.254;2023-06-26T14:32:29;9.07;;;6.95;;
51214;SDS011;63849;47.546;19.254;2023-06-26T14:34:55;7.78;;;6.97;;
51214;SDS011;63849;47.546;19.254;2023-06-26T14:37:23;9.27;;;6.60;;
51214;SDS011;63849;47.546;19.254;2023-06-26T14:39:50;8.00;;;6.88;;
51214;SDS011;63849;47.546;19.254;2023-06-26T14:42:15;7.65;;;6.82;;
51214;SDS011;63849;47.546;19.254;2023-06-26T14:44:41;7.13;;;6.43;;
51214;SDS011;63849;47.546;19.254;2023-06-26T14:47:07;7.22;;;6.47;;